createdAt,value
2017-06-18T00:00:41.906Z,19.30
2017-06-18T00:03:08.522Z,19.40
2017-06-18T00:05:35.181Z,19.40
2017-06-18T00:08:01.921Z,19.40
2017-06-18T00:10:28.540Z,19.40
2017-06-18T00:12:55.168Z,19.40
2017-06-18T00:15:22.373Z,19.40
2017-06-18T00:17:49.064Z,19.40
2017-06-18T00:20:15.596Z,19.40
2017-06-18T00:22:42.134Z,19.40
2017-06-18T00:25:08.773Z,19.40
2017-06-18T00:27:36.048Z,19.40
2017-06-18T00:30:02.874Z,19.40
2017-06-18T00:32:29.527Z,19.30
2017-06-18T00:34:56.593Z,19.30
2017-06-18T00:37:24.647Z,19.30
2017-06-18T00:39:51.285Z,19.30
2017-06-18T00:42:18.717Z,19.40
2017-06-18T00:44:45.896Z,19.30
2017-06-18T00:47:12.401Z,19.40
2017-06-18T00:49:38.962Z,19.30
2017-06-18T00:52:05.603Z,19.30
2017-06-18T00:54:33.058Z,19.30
2017-06-18T00:57:00.515Z,19.30
2017-06-18T00:59:27.153Z,19.20
2017-06-18T01:01:53.790Z,19.20
2017-06-18T01:04:20.428Z,19.20
2017-06-18T01:06:47.065Z,19.10
2017-06-18T01:09:14.735Z,19.30
2017-06-18T01:11:41.345Z,19.20
2017-06-18T01:14:07.902Z,19.20
2017-06-18T01:16:34.518Z,19.20
2017-06-18T01:19:01.177Z,19.10
2017-06-18T01:21:27.814Z,19.10
2017-06-18T01:23:54.454Z,19.10
2017-06-18T01:26:21.451Z,19.00
2017-06-18T01:28:48.756Z,19.00
2017-06-18T01:31:15.392Z,19.10
2017-06-18T01:33:42.027Z,19.00
2017-06-18T01:36:08.666Z,19.10
2017-06-18T01:38:35.304Z,19.00
2017-06-18T01:41:01.917Z,19.10
2017-06-18T01:43:28.579Z,19.10
2017-06-18T01:45:55.195Z,19.00
2017-06-18T01:48:22.060Z,19.00
2017-06-18T01:50:48.672Z,19.10
2017-06-18T01:53:15.336Z,19.20
2017-06-18T01:55:42.500Z,19.00
2017-06-18T01:58:09.842Z,19.00
2017-06-18T02:00:36.456Z,19.10
2017-06-18T02:03:03.116Z,19.10
2017-06-18T02:05:29.856Z,19.10
2017-06-18T02:07:56.495Z,19.10
2017-06-18T02:10:24.133Z,19.10
2017-06-18T02:12:50.692Z,19.00
2017-06-18T02:15:17.331Z,19.00
2017-06-18T02:17:43.967Z,19.00
2017-06-18T02:20:10.606Z,19.00
2017-06-18T02:22:37.246Z,19.10
2017-06-18T02:25:03.750Z,19.00
2017-06-18T02:27:31.139Z,19.00
2017-06-18T02:29:57.749Z,19.00
2017-06-18T02:32:24.410Z,19.00
2017-06-18T02:34:51.498Z,19.00
2017-06-18T02:37:18.535Z,19.00
2017-06-18T02:39:59.833Z,19.00
2017-06-18T02:42:41.018Z,19.00
2017-06-18T02:45:22.275Z,19.00
2017-06-18T02:48:04.091Z,18.90
2017-06-18T02:50:45.566Z,18.90
2017-06-18T02:53:27.063Z,19.00
2017-06-18T02:56:08.404Z,19.00
2017-06-18T02:58:49.976Z,18.90
2017-06-18T03:01:16.520Z,19.00
2017-06-18T03:03:58.095Z,19.00
2017-06-18T03:06:39.966Z,18.90
2017-06-18T03:09:22.194Z,19.00
2017-06-18T03:12:03.533Z,18.90
2017-06-18T03:14:44.946Z,19.00
2017-06-18T03:17:26.513Z,18.90
2017-06-18T03:20:07.835Z,18.90
2017-06-18T03:22:34.453Z,18.90
2017-06-18T03:25:01.118Z,19.00
2017-06-18T03:27:28.741Z,19.00
2017-06-18T03:29:56.034Z,19.00
2017-06-18T03:32:22.645Z,19.00
2017-06-18T03:34:49.312Z,18.90
2017-06-18T03:37:16.765Z,18.90
2017-06-18T03:39:44.012Z,18.90
2017-06-18T03:42:11.160Z,18.90
2017-06-18T03:44:37.722Z,18.90
2017-06-18T03:47:05.160Z,18.90
2017-06-18T03:49:31.798Z,18.90
2017-06-18T03:51:59.379Z,18.80
2017-06-18T03:54:26.100Z,18.80
2017-06-18T03:56:52.713Z,18.80
2017-06-18T03:59:19.353Z,18.80
2017-06-18T04:01:46.011Z,18.80
2017-06-18T04:04:13.249Z,18.80
2017-06-18T04:06:40.517Z,18.90
2017-06-18T04:09:07.637Z,18.80
2017-06-18T04:11:34.203Z,18.80
2017-06-18T04:14:00.840Z,18.80
2017-06-18T04:16:28.325Z,18.80
2017-06-18T04:18:54.934Z,18.80
2017-06-18T04:21:21.573Z,18.80
2017-06-18T04:23:48.185Z,18.80
2017-06-18T04:26:14.851Z,18.80
2017-06-18T04:28:41.487Z,18.90
2017-06-18T04:31:08.613Z,18.80
2017-06-18T04:33:50.121Z,18.80
2017-06-18T04:36:18.313Z,18.80
2017-06-18T04:39:00.862Z,18.70
2017-06-18T04:41:27.422Z,18.70
2017-06-18T04:43:54.058Z,18.70
2017-06-18T04:46:21.300Z,18.70
2017-06-18T04:48:48.863Z,18.70
2017-06-18T04:51:15.531Z,18.70
2017-06-18T04:53:42.169Z,18.70
2017-06-18T04:56:08.808Z,18.70
2017-06-18T04:58:35.445Z,18.60
2017-06-18T05:01:02.083Z,18.50
2017-06-18T05:03:29.517Z,18.40
2017-06-18T05:05:56.618Z,18.40
2017-06-18T05:08:23.225Z,18.40
2017-06-18T05:10:49.841Z,18.30
2017-06-18T05:13:16.503Z,18.40
2017-06-18T05:15:43.114Z,18.30
2017-06-18T05:18:09.675Z,18.30
2017-06-18T05:20:36.313Z,18.40
2017-06-18T05:23:02.951Z,18.40
2017-06-18T05:25:29.589Z,18.50
2017-06-18T05:27:57.044Z,18.40
2017-06-18T05:30:25.289Z,18.50
2017-06-18T05:32:51.936Z,18.40
2017-06-18T05:35:19.121Z,18.50
2017-06-18T05:37:46.192Z,18.50
2017-06-18T05:40:13.308Z,18.50
2017-06-18T05:42:39.946Z,18.50
2017-06-18T05:45:07.198Z,18.40
2017-06-18T05:47:34.662Z,18.50
2017-06-18T05:50:02.111Z,18.50
2017-06-18T05:52:29.454Z,18.50
2017-06-18T05:54:56.821Z,18.50
2017-06-18T05:57:25.627Z,18.60
2017-06-18T05:59:56.450Z,18.60
2017-06-18T06:02:26.340Z,18.70
2017-06-18T06:04:52.999Z,18.70
2017-06-18T06:07:19.637Z,18.80
2017-06-18T06:09:46.378Z,18.80
2017-06-18T06:12:12.993Z,18.90
2017-06-18T06:14:39.755Z,18.90
2017-06-18T06:17:09.062Z,19.00
2017-06-18T06:19:37.385Z,19.00
2017-06-18T06:22:03.941Z,19.10
2017-06-18T06:24:31.211Z,19.30
2017-06-18T06:26:58.269Z,19.50
2017-06-18T06:29:25.706Z,19.70
2017-06-18T06:31:52.363Z,19.60
2017-06-18T06:34:19.006Z,19.80
2017-06-18T06:36:45.640Z,19.90
2017-06-18T06:39:12.381Z,20.00
2017-06-18T06:41:40.355Z,20.00
2017-06-18T06:44:06.988Z,20.10
2017-06-18T06:46:33.603Z,20.30
2017-06-18T06:49:00.266Z,20.40
2017-06-18T06:51:27.721Z,20.70
2017-06-18T06:54:10.006Z,20.70
2017-06-18T06:56:36.662Z,20.80
2017-06-18T06:59:03.277Z,21.00
2017-06-18T07:01:29.941Z,21.10
2017-06-18T07:03:56.576Z,21.10
2017-06-18T07:06:23.848Z,21.20
2017-06-18T07:08:51.260Z,21.80
2017-06-18T07:11:17.926Z,21.70
2017-06-18T07:13:44.538Z,22.10
2017-06-18T07:16:11.200Z,22.30
2017-06-18T07:18:37.813Z,22.40
2017-06-18T07:21:04.475Z,22.50
2017-06-18T07:23:31.115Z,22.30
2017-06-18T07:25:57.753Z,22.60
2017-06-18T07:28:24.390Z,22.90
2017-06-18T07:30:51.028Z,22.70
2017-06-18T07:33:17.665Z,22.40
2017-06-18T07:35:45.419Z,22.20
2017-06-18T07:38:12.172Z,22.20
2017-06-18T07:40:38.807Z,22.80
2017-06-18T07:43:05.449Z,23.40
2017-06-18T07:45:32.084Z,24.00
2017-06-18T07:47:58.722Z,24.20
2017-06-18T07:50:25.363Z,24.40
2017-06-18T07:52:52.611Z,24.80
2017-06-18T07:55:19.198Z,23.80
2017-06-18T07:57:45.887Z,23.50
2017-06-18T08:00:12.526Z,23.70
2017-06-18T08:02:39.163Z,24.60
2017-06-18T08:05:05.801Z,24.30
2017-06-18T08:07:32.417Z,23.70
2017-06-18T08:09:59.077Z,25.00
2017-06-18T08:12:25.694Z,24.20
2017-06-18T08:14:52.353Z,25.60
2017-06-18T08:17:18.964Z,25.90
2017-06-18T08:19:45.629Z,26.10
2017-06-18T08:22:12.266Z,26.30
2017-06-18T08:24:39.277Z,25.80
2017-06-18T08:27:05.933Z,26.00
2017-06-18T08:29:33.204Z,25.90
2017-06-18T08:31:59.817Z,25.80
2017-06-18T08:34:26.479Z,26.30
2017-06-18T08:36:53.118Z,26.30
2017-06-18T08:39:19.837Z,26.70
2017-06-18T08:41:46.498Z,26.70
2017-06-18T08:44:13.748Z,27.00
2017-06-18T08:46:40.365Z,26.60
2017-06-18T08:49:07.026Z,26.50
2017-06-18T08:51:34.149Z,26.60
2017-06-18T08:54:00.812Z,26.50
2017-06-18T08:56:27.630Z,27.20
2017-06-18T08:58:54.292Z,26.30
2017-06-18T09:01:20.930Z,26.50
2017-06-18T09:03:47.557Z,27.30
2017-06-18T09:06:15.478Z,27.00
2017-06-18T09:08:42.073Z,27.20
2017-06-18T09:11:08.711Z,28.20
2017-06-18T09:13:37.833Z,28.10
2017-06-18T09:16:04.650Z,27.80
2017-06-18T09:18:31.290Z,27.90
2017-06-18T09:20:57.925Z,28.00
2017-06-18T09:23:24.534Z,27.10
2017-06-18T09:25:52.354Z,27.90
2017-06-18T09:28:19.066Z,28.50
2017-06-18T09:30:45.704Z,27.90
2017-06-18T09:33:12.322Z,26.30
2017-06-18T09:35:38.956Z,26.30
2017-06-18T09:38:05.619Z,27.00
2017-06-18T09:40:32.256Z,26.60
2017-06-18T09:42:59.486Z,26.90
2017-06-18T09:45:26.146Z,27.50
2017-06-18T09:47:52.784Z,27.90
2017-06-18T09:50:19.423Z,27.30
2017-06-18T09:52:46.060Z,27.30
2017-06-18T09:55:12.698Z,27.70
2017-06-18T09:57:39.312Z,28.20
2017-06-18T10:00:05.974Z,27.90
2017-06-18T10:02:32.611Z,28.20
2017-06-18T10:04:59.250Z,28.80
2017-06-18T10:07:25.888Z,29.20
2017-06-18T10:09:52.525Z,28.90
2017-06-18T10:12:19.266Z,29.20
2017-06-18T10:14:45.807Z,29.90
2017-06-18T10:17:12.416Z,30.10
2017-06-18T10:19:39.077Z,29.40
2017-06-18T10:22:11.654Z,28.80
2017-06-18T10:24:38.292Z,29.60
2017-06-18T10:27:04.931Z,30.40
2017-06-18T10:29:31.545Z,30.20
2017-06-18T10:31:58.822Z,30.80
2017-06-18T10:34:25.435Z,31.60
2017-06-18T10:36:52.096Z,32.30
2017-06-18T10:39:18.735Z,33.20
2017-06-18T10:41:45.375Z,33.80
2017-06-18T10:44:12.010Z,34.50
2017-06-18T10:46:53.598Z,34.00
2017-06-18T10:49:20.213Z,35.10
2017-06-18T10:51:46.874Z,32.40
2017-06-18T10:54:13.512Z,30.80
2017-06-18T10:56:40.151Z,30.00
2017-06-18T10:59:06.765Z,29.20
2017-06-18T11:01:33.429Z,28.00
2017-06-18T11:04:00.040Z,27.60
2017-06-18T11:06:26.881Z,27.30
2017-06-18T11:08:53.370Z,28.00
2017-06-18T11:11:19.957Z,27.20
2017-06-18T11:13:47.230Z,27.40
2017-06-18T11:16:13.845Z,27.00
2017-06-18T11:18:40.481Z,27.00
2017-06-18T11:21:07.143Z,27.30
2017-06-18T11:23:33.781Z,27.60
2017-06-18T11:26:00.420Z,27.80
2017-06-18T11:28:27.058Z,27.70
2017-06-18T11:30:53.698Z,27.60
2017-06-18T11:33:20.310Z,27.30
2017-06-18T11:35:46.970Z,27.20
2017-06-18T11:38:13.609Z,27.30
2017-06-18T11:40:40.225Z,27.20
2017-06-18T11:43:06.885Z,27.40
2017-06-18T11:45:33.523Z,27.20
2017-06-18T11:48:00.160Z,27.00
2017-06-18T11:50:26.798Z,26.80
2017-06-18T11:52:53.538Z,26.80
2017-06-18T11:55:20.177Z,27.00
2017-06-18T11:57:47.416Z,27.00
2017-06-18T12:00:13.965Z,27.00
2017-06-18T12:02:40.527Z,26.90
2017-06-18T12:05:07.242Z,26.70
2017-06-18T12:07:33.882Z,26.60
2017-06-18T12:10:00.516Z,26.60
2017-06-18T12:12:27.154Z,26.60
2017-06-18T12:14:53.768Z,26.50
2017-06-18T12:17:20.434Z,26.70
2017-06-18T12:19:47.068Z,26.40
2017-06-18T12:22:13.681Z,26.20
2017-06-18T12:24:40.344Z,26.20
2017-06-18T12:27:07.802Z,26.20
2017-06-18T12:29:34.440Z,26.20
2017-06-18T12:32:01.897Z,26.30
2017-06-18T12:34:28.481Z,26.40
2017-06-18T12:36:55.795Z,26.50
2017-06-18T12:39:22.426Z,26.60
2017-06-18T12:41:49.661Z,26.70
2017-06-18T12:44:16.315Z,26.60
2017-06-18T12:46:42.850Z,26.60
2017-06-18T12:49:09.488Z,26.60
2017-06-18T12:51:36.127Z,26.50
2017-06-18T12:54:03.579Z,26.60
2017-06-18T12:56:30.221Z,26.60
2017-06-18T12:58:57.464Z,26.60
2017-06-18T13:01:24.111Z,26.60
2017-06-18T13:03:50.748Z,26.60
2017-06-18T13:06:18.684Z,26.50
2017-06-18T13:08:45.254Z,26.40
2017-06-18T13:11:11.892Z,26.40
2017-06-18T13:13:38.539Z,26.40
2017-06-18T13:16:05.986Z,26.30
2017-06-18T13:18:32.624Z,26.30
2017-06-18T13:20:59.878Z,26.30
2017-06-18T13:23:26.490Z,26.40
2017-06-18T13:25:53.050Z,26.50
2017-06-18T13:28:19.688Z,26.50
2017-06-18T13:30:46.327Z,26.50
2017-06-18T13:33:12.963Z,26.40
2017-06-18T13:35:39.603Z,26.30
2017-06-18T13:38:06.241Z,26.40
2017-06-18T13:40:32.878Z,26.30
2017-06-18T13:42:59.519Z,26.30
2017-06-18T13:45:26.155Z,26.40
2017-06-18T13:47:52.791Z,26.40
2017-06-18T13:50:19.428Z,26.30
2017-06-18T13:52:46.067Z,26.30
2017-06-18T13:55:13.903Z,26.30
2017-06-18T13:57:41.072Z,26.40
2017-06-18T14:00:07.723Z,26.40
2017-06-18T14:02:34.257Z,26.50
2017-06-18T14:05:00.895Z,26.50
2017-06-18T14:07:27.533Z,26.40
2017-06-18T14:09:54.767Z,26.30
2017-06-18T14:12:22.245Z,26.30
2017-06-18T14:14:49.087Z,26.40
2017-06-18T14:17:16.298Z,26.60
2017-06-18T14:19:43.821Z,26.50
2017-06-18T14:22:11.253Z,26.40
2017-06-18T14:24:37.891Z,26.30
2017-06-18T14:27:04.505Z,26.50
2017-06-18T14:29:31.166Z,26.40
2017-06-18T14:31:57.780Z,26.20
2017-06-18T14:34:24.440Z,26.30
2017-06-18T14:36:51.059Z,26.30
2017-06-18T14:39:18.296Z,26.40
2017-06-18T14:41:45.071Z,26.60
2017-06-18T14:44:12.234Z,26.50
2017-06-18T14:46:38.961Z,26.50
2017-06-18T14:49:05.602Z,26.60
2017-06-18T14:51:33.673Z,26.40
2017-06-18T14:54:00.286Z,26.40
2017-06-18T14:56:27.153Z,26.50
2017-06-18T14:58:53.790Z,26.70
2017-06-18T15:01:20.428Z,26.60
2017-06-18T15:03:47.066Z,26.40
2017-06-18T15:06:13.705Z,26.50
2017-06-18T15:08:40.342Z,26.50
2017-06-18T15:11:06.956Z,26.70
2017-06-18T15:13:33.618Z,26.60
2017-06-18T15:16:00.228Z,26.60
2017-06-18T15:18:26.893Z,26.40
2017-06-18T15:20:53.531Z,26.40
2017-06-18T15:23:20.071Z,26.50
2017-06-18T15:25:46.602Z,26.40
2017-06-18T15:28:13.343Z,26.50
2017-06-18T15:30:39.877Z,26.50
2017-06-18T15:33:06.517Z,26.50
2017-06-18T15:35:33.483Z,26.60
2017-06-18T15:38:00.201Z,26.60
2017-06-18T15:40:26.813Z,26.50
2017-06-18T15:42:53.477Z,26.40
2017-06-18T15:45:20.116Z,26.40
2017-06-18T15:47:46.754Z,26.30
2017-06-18T15:50:13.376Z,26.40
2017-06-18T15:52:40.617Z,26.40
2017-06-18T15:55:07.895Z,26.40
2017-06-18T15:57:34.532Z,26.50
2017-06-18T16:00:01.144Z,26.50
2017-06-18T16:02:27.734Z,26.60
2017-06-18T16:04:54.348Z,26.60
2017-06-18T16:07:20.987Z,26.50
2017-06-18T16:09:47.626Z,26.50
2017-06-18T16:12:15.052Z,26.50
2017-06-18T16:14:42.042Z,26.50
2017-06-18T16:17:08.763Z,26.50
2017-06-18T16:19:35.401Z,26.50
2017-06-18T16:22:02.015Z,26.40
2017-06-18T16:24:28.678Z,26.40
2017-06-18T16:26:55.315Z,26.40
2017-06-18T16:29:21.822Z,26.40
2017-06-18T16:31:48.490Z,26.40
2017-06-18T16:34:15.126Z,26.40
2017-06-18T16:36:42.354Z,26.30
2017-06-18T16:39:09.016Z,26.40
2017-06-18T16:41:35.653Z,26.40
2017-06-18T16:44:02.498Z,26.40
2017-06-18T16:46:29.114Z,26.30
2017-06-18T16:49:11.212Z,26.40
2017-06-18T16:51:37.744Z,26.40
2017-06-18T16:54:04.793Z,26.30
2017-06-18T16:56:31.455Z,26.40
2017-06-18T16:58:58.069Z,26.30
2017-06-18T17:01:24.556Z,26.20
2017-06-18T17:03:51.165Z,26.20
2017-06-18T17:06:18.848Z,26.20
2017-06-18T17:08:45.465Z,26.20
2017-06-18T17:11:12.082Z,26.20
2017-06-18T17:13:39.560Z,26.20
2017-06-18T17:16:06.740Z,26.20
2017-06-18T17:18:33.861Z,26.20
2017-06-18T17:21:06.644Z,26.20
2017-06-18T17:23:48.230Z,26.10
2017-06-18T17:26:14.869Z,26.20
2017-06-18T17:28:42.585Z,26.10
2017-06-18T17:31:09.144Z,26.10
2017-06-18T17:33:36.273Z,26.10
2017-06-18T17:36:02.853Z,26.10
2017-06-18T17:38:29.388Z,26.10
2017-06-18T17:40:56.004Z,26.10
2017-06-18T17:43:37.410Z,26.00
2017-06-18T17:46:04.049Z,25.90
2017-06-18T17:48:31.506Z,25.90
2017-06-18T17:50:58.705Z,25.90
2017-06-18T17:53:25.396Z,25.90
2017-06-18T17:55:52.035Z,25.80
2017-06-18T17:58:19.837Z,25.80
2017-06-18T18:00:46.514Z,25.80
2017-06-18T18:03:13.176Z,25.80
2017-06-18T18:05:40.471Z,25.80
2017-06-18T18:08:07.244Z,25.70
2017-06-18T18:10:33.909Z,25.70
2017-06-18T18:13:01.926Z,25.60
2017-06-18T18:15:28.619Z,25.50
2017-06-18T18:17:55.233Z,25.60
2017-06-18T18:20:21.895Z,25.60
2017-06-18T18:22:48.523Z,25.60
2017-06-18T18:25:15.170Z,25.60
2017-06-18T18:27:41.809Z,25.60
2017-06-18T18:30:09.267Z,25.50
2017-06-18T18:32:35.905Z,25.50
2017-06-18T18:35:02.527Z,25.50
2017-06-18T18:37:29.180Z,25.40
2017-06-18T18:39:55.817Z,25.40
2017-06-18T18:42:22.960Z,25.30
2017-06-18T18:44:49.707Z,25.30
2017-06-18T18:47:16.559Z,25.30
2017-06-18T18:49:43.413Z,25.30
2017-06-18T18:52:10.143Z,25.30
2017-06-18T18:54:36.744Z,25.30
2017-06-18T18:57:03.410Z,25.30
2017-06-18T18:59:30.589Z,25.20
2017-06-18T19:01:57.401Z,25.10
2017-06-18T19:04:25.327Z,25.10
2017-06-18T19:06:52.317Z,25.10
2017-06-18T19:09:18.928Z,25.10
2017-06-18T19:11:46.616Z,25.00
2017-06-18T19:14:13.254Z,25.00
2017-06-18T19:16:40.711Z,24.90
2017-06-18T19:19:07.348Z,24.90
2017-06-18T19:21:34.396Z,24.90
2017-06-18T19:24:01.009Z,24.80
2017-06-18T19:26:28.527Z,24.80
2017-06-18T19:28:55.746Z,24.70
2017-06-18T19:31:22.485Z,24.70
2017-06-18T19:33:49.704Z,24.50
2017-06-18T19:36:17.406Z,24.50
2017-06-18T19:38:44.037Z,24.40
2017-06-18T19:41:11.992Z,24.40
2017-06-18T19:43:39.156Z,24.20
2017-06-18T19:46:06.817Z,24.00
2017-06-18T19:48:51.141Z,24.00
2017-06-18T19:51:18.117Z,24.00
2017-06-18T19:53:46.397Z,23.80
2017-06-18T19:56:13.543Z,23.70
2017-06-18T19:58:40.388Z,23.80
2017-06-18T20:01:08.251Z,23.70
2017-06-18T20:03:37.119Z,23.60
2017-06-18T20:06:05.451Z,23.60
2017-06-18T20:08:33.276Z,23.50
2017-06-18T20:11:01.792Z,23.30
2017-06-18T20:13:30.657Z,23.30
2017-06-18T20:15:58.105Z,23.30
2017-06-18T20:18:26.518Z,23.20
2017-06-18T20:20:54.156Z,23.20
2017-06-18T20:23:21.203Z,23.10
2017-06-18T20:25:47.923Z,22.90
2017-06-18T20:28:14.561Z,22.90
2017-06-18T20:30:41.840Z,22.80
2017-06-18T20:33:09.157Z,22.70
2017-06-18T20:35:51.413Z,22.60
2017-06-18T20:38:18.134Z,22.60
2017-06-18T20:40:44.769Z,22.40
2017-06-18T20:43:11.385Z,22.40
2017-06-18T20:45:38.019Z,22.40
2017-06-18T20:48:04.658Z,22.30
2017-06-18T20:50:32.140Z,22.30
2017-06-18T20:52:58.778Z,22.20
2017-06-18T20:55:25.419Z,22.20
2017-06-18T20:57:52.873Z,22.20
2017-06-18T21:00:19.513Z,22.10
2017-06-18T21:02:46.112Z,22.10
2017-06-18T21:05:12.785Z,22.00
2017-06-18T21:07:39.423Z,21.90
2017-06-18T21:10:29.208Z,21.90
2017-06-18T21:12:55.841Z,21.90
2017-06-18T21:15:22.352Z,21.80
2017-06-18T21:17:49.119Z,21.80
2017-06-18T21:20:16.369Z,21.80
2017-06-18T21:22:43.008Z,21.70
2017-06-18T21:25:09.646Z,21.70
2017-06-18T21:27:36.898Z,21.60
2017-06-18T21:30:03.535Z,21.50
2017-06-18T21:32:30.072Z,21.30
2017-06-18T21:34:56.813Z,21.30
2017-06-18T21:37:24.034Z,21.40
2017-06-18T21:39:50.577Z,21.30
2017-06-18T21:42:17.136Z,21.20
2017-06-18T21:44:44.284Z,21.10
2017-06-18T21:47:10.794Z,21.00
2017-06-18T21:49:37.459Z,21.00
2017-06-18T21:52:04.097Z,20.90
2017-06-18T21:54:31.963Z,20.80
2017-06-18T21:56:58.601Z,20.80
2017-06-18T21:59:25.212Z,20.70
2017-06-18T22:01:51.877Z,20.60
2017-06-18T22:04:18.488Z,20.50
2017-06-18T22:06:45.152Z,20.50
2017-06-18T22:09:11.764Z,20.40
2017-06-18T22:11:38.892Z,20.30
2017-06-18T22:14:05.476Z,20.40
2017-06-18T22:16:32.060Z,20.30
2017-06-18T22:18:58.724Z,20.40
2017-06-18T22:21:25.389Z,20.30
2017-06-18T22:23:51.999Z,20.30
2017-06-18T22:26:19.256Z,20.20
2017-06-18T22:28:45.810Z,20.20
2017-06-18T22:31:12.351Z,20.10
2017-06-18T22:33:38.989Z,20.10
2017-06-18T22:36:05.629Z,20.10
2017-06-18T22:38:32.266Z,20.10
2017-06-18T22:40:58.773Z,20.00
2017-06-18T22:43:25.438Z,20.00
2017-06-18T22:45:52.692Z,20.00
2017-06-18T22:48:19.329Z,20.00
2017-06-18T22:50:45.966Z,20.10
2017-06-18T22:53:12.604Z,20.00
2017-06-18T22:55:39.241Z,20.00
2017-06-18T22:58:06.500Z,20.00
2017-06-18T23:00:33.746Z,20.00
2017-06-18T23:03:00.388Z,19.90
2017-06-18T23:05:27.817Z,20.00
2017-06-18T23:07:54.479Z,20.00
2017-06-18T23:10:21.219Z,20.00
2017-06-18T23:12:47.755Z,20.00
2017-06-18T23:15:14.394Z,20.00
2017-06-18T23:17:41.005Z,20.10
2017-06-18T23:20:07.644Z,20.10
2017-06-18T23:22:34.287Z,20.10
2017-06-18T23:25:00.947Z,20.10
2017-06-18T23:27:28.402Z,20.10
2017-06-18T23:29:55.040Z,20.10
2017-06-18T23:32:21.624Z,20.00
2017-06-18T23:34:48.288Z,20.10
2017-06-18T23:37:14.953Z,20.10
2017-06-18T23:39:42.072Z,20.10
2017-06-18T23:42:09.458Z,20.10
2017-06-18T23:44:36.068Z,20.00
2017-06-18T23:47:03.852Z,20.00
2017-06-18T23:49:30.396Z,20.10
2017-06-18T23:51:56.935Z,20.10
2017-06-18T23:54:23.465Z,20.10
2017-06-18T23:56:50.107Z,20.10
2017-06-18T23:59:17.356Z,20.10
